sensor_id;sensor_type;location;lat;lon;timestamp;temperature;humidity
31747;DHT22;18319;48.974;8.462;2023-05-17T00:01:15;7.80;99.90
31747;DHT22;18319;48.974;8.462;2023-05-17T00:03:42;7.70;99.90
31747;DHT22;18319;48.974;8.462;2023-05-17T00:06:09;7.70;99.90
31747;DHT22;18319;48.974;8.462;2023-05-17T00:08:36;7.70;99.90
31747;DHT22;18319;48.974;8.462;2023-05-17T00:11:02;7.70;99.90
31747;DHT22;18319;48.974;8.462;2023-05-17T00:13:29;7.70;99.90
31747;DHT22;18319;48.974;8.462;2023-05-17T00:15:56;7.70;99.90
31747;DHT22;18319;48.974;8.462;2023-05-17T00:18:24;7.70;99.90
31747;DHT22;18319;48.974;8.462;2023-05-17T00:20:50;7.70;99.90
31747;DHT22;18319;48.974;8.462;2023-05-17T00:23:17;7.70;99.90
31747;DHT22;18319;48.974;8.462;2023-05-17T00:25:44;7.70;99.90
31747;DHT22;18319;48.974;8.462;2023-05-17T00:28:11;7.60;99.90
31747;DHT22;18319;48.974;8.462;2023-05-17T00:30:37;7.60;99.90
31747;DHT22;18319;48.974;8.462;2023-05-17T00:33:04;7.70;99.90
31747;DHT22;18319;48.974;8.462;2023-05-17T00:35:32;7.70;99.90
31747;DHT22;18319;48.974;8.462;2023-05-17T00:37:59;7.70;99.90
31747;DHT22;18319;48.974;8.462;2023-05-17T00:40:26;7.70;99.90
31747;DHT22;18319;48.974;8.462;2023-05-17T00:42:53;7.70;99.90
31747;DHT22;18319;48.974;8.462;2023-05-17T00:45:20;7.70;99.90
31747;DHT22;18319;48.974;8.462;2023-05-17T00:47:46;7.70;99.90
31747;DHT22;18319;48.974;8.462;2023-05-17T00:50:13;7.60;99.90
31747;DHT22;18319;48.974;8.462;2023-05-17T00:52:41;7.70;99.90
31747;DHT22;18319;48.974;8.462;2023-05-17T00:55:08;7.60;99.90
31747;DHT22;18319;48.974;8.462;2023-05-17T00:57:35;7.60;99.90
31747;DHT22;18319;48.974;8.462;2023-05-17T01:00:02;7.60;99.90
31747;DHT22;18319;48.974;8.462;2023-05-17T01:02:29;7.60;99.90
31747;DHT22;18319;48.974;8.462;2023-05-17T01:04:56;7.60;99.90
31747;DHT22;18319;48.974;8.462;2023-05-17T01:07:23;7.60;99.90
31747;DHT22;18319;48.974;8.462;2023-05-17T01:09:51;7.50;99.90
31747;DHT22;18319;48.974;8.462;2023-05-17T01:12:27;7.60;99.90
31747;DHT22;18319;48.974;8.462;2023-05-17T01:15:06;7.50;99.90
31747;DHT22;18319;48.974;8.462;2023-05-17T01:17:38;7.50;99.90
31747;DHT22;18319;48.974;8.462;2023-05-17T01:20:13;7.50;99.90
31747;DHT22;18319;48.974;8.462;2023-05-17T01:22:51;7.50;99.90
31747;DHT22;18319;48.974;8.462;2023-05-17T01:25:29;7.50;99.90
31747;DHT22;18319;48.974;8.462;2023-05-17T01:28:03;7.50;99.90
31747;DHT22;18319;48.974;8.462;2023-05-17T01:30:31;7.50;99.90
31747;DHT22;18319;48.974;8.462;2023-05-17T01:32:58;7.40;99.90
31747;DHT22;18319;48.974;8.462;2023-05-17T01:35:26;7.40;99.90
31747;DHT22;18319;48.974;8.462;2023-05-17T01:37:55;7.40;99.90
31747;DHT22;18319;48.974;8.462;2023-05-17T01:40:27;7.40;99.90
31747;DHT22;18319;48.974;8.462;2023-05-17T01:42:59;7.30;99.90
31747;DHT22;18319;48.974;8.462;2023-05-17T01:45:32;7.30;99.90
31747;DHT22;18319;48.974;8.462;2023-05-17T01:48:09;7.20;99.90
31747;DHT22;18319;48.974;8.462;2023-05-17T01:50:39;7.20;99.90
31747;DHT22;18319;48.974;8.462;2023-05-17T01:53:09;7.20;99.90
31747;DHT22;18319;48.974;8.462;2023-05-17T01:55:42;7.10;99.90
31747;DHT22;18319;48.974;8.462;2023-05-17T01:58:11;7.10;99.90
31747;DHT22;18319;48.974;8.462;2023-05-17T02:00:42;7.10;99.90
31747;DHT22;18319;48.974;8.462;2023-05-17T02:03:12;7.10;99.90
31747;DHT22;18319;48.974;8.462;2023-05-17T02:05:42;7.10;99.90
31747;DHT22;18319;48.974;8.462;2023-05-17T02:08:09;7.10;99.90
31747;DHT22;18319;48.974;8.462;2023-05-17T02:10:36;7.10;99.90
31747;DHT22;18319;48.974;8.462;2023-05-17T02:13:03;7.20;99.90
31747;DHT22;18319;48.974;8.462;2023-05-17T02:15:30;7.20;99.90
31747;DHT22;18319;48.974;8.462;2023-05-17T02:17:58;7.20;99.90
31747;DHT22;18319;48.974;8.462;2023-05-17T02:20:25;7.30;99.90
31747;DHT22;18319;48.974;8.462;2023-05-17T02:22:52;7.30;99.90
31747;DHT22;18319;48.974;8.462;2023-05-17T02:25:18;7.40;99.90
31747;DHT22;18319;48.974;8.462;2023-05-17T02:27:45;7.40;99.90
31747;DHT22;18319;48.974;8.462;2023-05-17T02:30:12;7.40;99.90
31747;DHT22;18319;48.974;8.462;2023-05-17T02:32:41;7.50;99.90
31747;DHT22;18319;48.974;8.462;2023-05-17T02:35:09;7.50;99.90
31747;DHT22;18319;48.974;8.462;2023-05-17T02:37:36;7.50;99.90
31747;DHT22;18319;48.974;8.462;2023-05-17T02:40:04;7.50;99.90
31747;DHT22;18319;48.974;8.462;2023-05-17T02:42:33;7.50;99.90
31747;DHT22;18319;48.974;8.462;2023-05-17T02:45:00;7.60;99.90
31747;DHT22;18319;48.974;8.462;2023-05-17T02:47:27;7.60;99.90
31747;DHT22;18319;48.974;8.462;2023-05-17T02:49:54;7.60;99.90
31747;DHT22;18319;48.974;8.462;2023-05-17T02:52:22;7.60;99.90
31747;DHT22;18319;48.974;8.462;2023-05-17T02:54:49;7.60;99.90
31747;DHT22;18319;48.974;8.462;2023-05-17T02:57:16;7.60;99.90
31747;DHT22;18319;48.974;8.462;2023-05-17T02:59:42;7.60;99.90
31747;DHT22;18319;48.974;8.462;2023-05-17T03:02:09;7.60;99.90
31747;DHT22;18319;48.974;8.462;2023-05-17T03:04:36;7.60;99.90
31747;DHT22;18319;48.974;8.462;2023-05-17T03:07:03;7.60;99.90
31747;DHT22;18319;48.974;8.462;2023-05-17T03:09:31;7.60;99.90
31747;DHT22;18319;48.974;8.462;2023-05-17T03:11:58;7.60;99.90
31747;DHT22;18319;48.974;8.462;2023-05-17T03:14:25;7.60;99.90
31747;DHT22;18319;48.974;8.462;2023-05-17T03:16:52;7.60;99.90
31747;DHT22;18319;48.974;8.462;2023-05-17T03:19:18;7.60;99.90
31747;DHT22;18319;48.974;8.462;2023-05-17T03:21:45;7.60;99.90
31747;DHT22;18319;48.974;8.462;2023-05-17T03:24:12;7.60;99.90
31747;DHT22;18319;48.974;8.462;2023-05-17T03:26:40;7.60;99.90
31747;DHT22;18319;48.974;8.462;2023-05-17T03:29:06;7.60;99.90
31747;DHT22;18319;48.974;8.462;2023-05-17T03:31:33;7.70;99.90
31747;DHT22;18319;48.974;8.462;2023-05-17T03:34:00;7.70;99.90
31747;DHT22;18319;48.974;8.462;2023-05-17T03:36:27;7.70;99.90
31747;DHT22;18319;48.974;8.462;2023-05-17T03:38:54;7.70;99.90
31747;DHT22;18319;48.974;8.462;2023-05-17T03:41:21;7.70;99.90
31747;DHT22;18319;48.974;8.462;2023-05-17T03:43:49;7.80;99.90
31747;DHT22;18319;48.974;8.462;2023-05-17T03:46:16;7.90;99.90
31747;DHT22;18319;48.974;8.462;2023-05-17T03:48:42;7.90;99.90
31747;DHT22;18319;48.974;8.462;2023-05-17T03:51:09;8.00;99.90
31747;DHT22;18319;48.974;8.462;2023-05-17T03:53:36;8.10;99.90
31747;DHT22;18319;48.974;8.462;2023-05-17T03:56:05;8.10;99.90
31747;DHT22;18319;48.974;8.462;2023-05-17T03:58:32;8.10;99.90
31747;DHT22;18319;48.974;8.462;2023-05-17T04:01:00;8.20;99.90
31747;DHT22;18319;48.974;8.462;2023-05-17T04:03:27;8.20;99.90
31747;DHT22;18319;48.974;8.462;2023-05-17T04:06:00;8.30;99.90
31747;DHT22;18319;48.974;8.462;2023-05-17T04:08:26;8.30;99.90
31747;DHT22;18319;48.974;8.462;2023-05-17T04:10:53;8.30;99.90
31747;DHT22;18319;48.974;8.462;2023-05-17T04:13:20;8.40;99.90
31747;DHT22;18319;48.974;8.462;2023-05-17T04:15:47;8.40;99.90
31747;DHT22;18319;48.974;8.462;2023-05-17T04:18:15;8.40;99.90
31747;DHT22;18319;48.974;8.462;2023-05-17T04:20:41;8.50;99.90
31747;DHT22;18319;48.974;8.462;2023-05-17T04:23:08;8.50;99.90
31747;DHT22;18319;48.974;8.462;2023-05-17T04:25:35;8.60;99.90
31747;DHT22;18319;48.974;8.462;2023-05-17T04:28:02;8.60;99.90
31747;DHT22;18319;48.974;8.462;2023-05-17T04:30:29;8.70;99.90
31747;DHT22;18319;48.974;8.462;2023-05-17T04:32:56;8.60;99.90
31747;DHT22;18319;48.974;8.462;2023-05-17T04:35:25;8.60;99.90
31747;DHT22;18319;48.974;8.462;2023-05-17T04:37:52;8.60;99.90
31747;DHT22;18319;48.974;8.462;2023-05-17T04:40:19;8.50;99.90
31747;DHT22;18319;48.974;8.462;2023-05-17T04:42:46;8.50;99.90
31747;DHT22;18319;48.974;8.462;2023-05-17T04:45:13;8.50;99.90
31747;DHT22;18319;48.974;8.462;2023-05-17T04:47:40;8.50;99.90
31747;DHT22;18319;48.974;8.462;2023-05-17T04:50:08;8.40;99.90
31747;DHT22;18319;48.974;8.462;2023-05-17T04:52:36;8.50;99.90
31747;DHT22;18319;48.974;8.462;2023-05-17T04:55:03;8.50;99.90
31747;DHT22;18319;48.974;8.462;2023-05-17T04:57:30;8.50;99.90
31747;DHT22;18319;48.974;8.462;2023-05-17T04:59:57;8.60;99.90
31747;DHT22;18319;48.974;8.462;2023-05-17T05:02:24;8.60;99.90
31747;DHT22;18319;48.974;8.462;2023-05-17T05:04:50;8.70;99.90
31747;DHT22;18319;48.974;8.462;2023-05-17T05:07:17;8.80;99.90
31747;DHT22;18319;48.974;8.462;2023-05-17T05:09:45;9.00;99.90
31747;DHT22;18319;48.974;8.462;2023-05-17T05:12:12;9.10;99.90
31747;DHT22;18319;48.974;8.462;2023-05-17T05:14:39;9.20;99.90
31747;DHT22;18319;48.974;8.462;2023-05-17T05:17:06;9.40;99.90
31747;DHT22;18319;48.974;8.462;2023-05-17T05:19:32;9.50;99.90
31747;DHT22;18319;48.974;8.462;2023-05-17T05:21:59;9.60;99.90
31747;DHT22;18319;48.974;8.462;2023-05-17T05:24:26;9.60;99.90
31747;DHT22;18319;48.974;8.462;2023-05-17T05:26:54;9.60;99.90
31747;DHT22;18319;48.974;8.462;2023-05-17T05:29:21;9.70;99.90
31747;DHT22;18319;48.974;8.462;2023-05-17T05:31:48;9.80;99.90
31747;DHT22;18319;48.974;8.462;2023-05-17T05:34:14;9.80;99.90
31747;DHT22;18319;48.974;8.462;2023-05-17T05:36:41;9.80;99.90
31747;DHT22;18319;48.974;8.462;2023-05-17T05:39:09;9.90;99.90
31747;DHT22;18319;48.974;8.462;2023-05-17T05:41:37;10.00;99.90
31747;DHT22;18319;48.974;8.462;2023-05-17T05:44:05;10.10;99.90
31747;DHT22;18319;48.974;8.462;2023-05-17T05:46:31;10.10;99.90
31747;DHT22;18319;48.974;8.462;2023-05-17T05:48:58;10.10;99.90
31747;DHT22;18319;48.974;8.462;2023-05-17T05:51:25;10.30;99.90
31747;DHT22;18319;48.974;8.462;2023-05-17T05:53:52;10.50;99.90
31747;DHT22;18319;48.974;8.462;2023-05-17T05:56:18;10.70;99.90
31747;DHT22;18319;48.974;8.462;2023-05-17T05:58:45;10.90;99.90
31747;DHT22;18319;48.974;8.462;2023-05-17T06:01:13;11.20;99.90
31747;DHT22;18319;48.974;8.462;2023-05-17T06:03:40;11.40;99.90
31747;DHT22;18319;48.974;8.462;2023-05-17T06:06:07;11.60;99.90
31747;DHT22;18319;48.974;8.462;2023-05-17T06:08:34;11.70;99.90
31747;DHT22;18319;48.974;8.462;2023-05-17T06:11:01;12.00;99.90
31747;DHT22;18319;48.974;8.462;2023-05-17T06:13:28;12.10;99.90
31747;DHT22;18319;48.974;8.462;2023-05-17T06:15:55;12.10;99.90
31747;DHT22;18319;48.974;8.462;2023-05-17T06:18:23;12.10;99.90
31747;DHT22;18319;48.974;8.462;2023-05-17T06:20:50;12.00;99.90
31747;DHT22;18319;48.974;8.462;2023-05-17T06:23:17;12.00;99.90
31747;DHT22;18319;48.974;8.462;2023-05-17T06:25:43;11.80;99.90
31747;DHT22;18319;48.974;8.462;2023-05-17T06:28:10;11.90;99.90
31747;DHT22;18319;48.974;8.462;2023-05-17T06:30:37;11.70;99.90
31747;DHT22;18319;48.974;8.462;2023-05-17T06:33:03;11.60;99.90
31747;DHT22;18319;48.974;8.462;2023-05-17T06:35:33;11.60;99.90
31747;DHT22;18319;48.974;8.462;2023-05-17T06:38:00;11.50;99.90
31747;DHT22;18319;48.974;8.462;2023-05-17T06:40:27;11.50;99.90
31747;DHT22;18319;48.974;8.462;2023-05-17T06:42:53;11.50;99.90
31747;DHT22;18319;48.974;8.462;2023-05-17T06:45:20;11.40;99.90
31747;DHT22;18319;48.974;8.462;2023-05-17T06:47:47;11.40;99.90
31747;DHT22;18319;48.974;8.462;2023-05-17T06:50:14;11.50;99.90
31747;DHT22;18319;48.974;8.462;2023-05-17T06:52:42;11.50;99.90
31747;DHT22;18319;48.974;8.462;2023-05-17T06:55:09;11.50;99.90
31747;DHT22;18319;48.974;8.462;2023-05-17T06:57:36;11.60;99.90
31747;DHT22;18319;48.974;8.462;2023-05-17T07:00:03;11.60;99.90
31747;DHT22;18319;48.974;8.462;2023-05-17T07:02:34;11.70;99.90
31747;DHT22;18319;48.974;8.462;2023-05-17T07:05:01;11.70;99.90
31747;DHT22;18319;48.974;8.462;2023-05-17T07:07:28;11.80;99.90
31747;DHT22;18319;48.974;8.462;2023-05-17T07:09:57;11.90;99.90
31747;DHT22;18319;48.974;8.462;2023-05-17T07:12:23;11.90;99.90
31747;DHT22;18319;48.974;8.462;2023-05-17T07:14:50;12.00;99.90
31747;DHT22;18319;48.974;8.462;2023-05-17T07:17:17;12.10;99.90
31747;DHT22;18319;48.974;8.462;2023-05-17T07:19:44;12.20;99.90
31747;DHT22;18319;48.974;8.462;2023-05-17T07:22:15;12.20;99.90
31747;DHT22;18319;48.974;8.462;2023-05-17T07:24:42;12.30;99.90
31747;DHT22;18319;48.974;8.462;2023-05-17T07:27:10;12.40;99.90
31747;DHT22;18319;48.974;8.462;2023-05-17T07:29:37;12.40;99.90
31747;DHT22;18319;48.974;8.462;2023-05-17T07:32:04;12.40;99.30
31747;DHT22;18319;48.974;8.462;2023-05-17T07:34:31;12.60;99.60
31747;DHT22;18319;48.974;8.462;2023-05-17T07:36:58;12.70;98.90
31747;DHT22;18319;48.974;8.462;2023-05-17T07:39:25;13.00;99.00
31747;DHT22;18319;48.974;8.462;2023-05-17T07:41:51;13.20;99.00
31747;DHT22;18319;48.974;8.462;2023-05-17T07:44:19;13.50;97.10
31747;DHT22;18319;48.974;8.462;2023-05-17T07:46:47;13.80;96.00
31747;DHT22;18319;48.974;8.462;2023-05-17T07:49:13;14.10;95.40
31747;DHT22;18319;48.974;8.462;2023-05-17T07:51:40;14.10;95.40
31747;DHT22;18319;48.974;8.462;2023-05-17T07:54:07;14.00;94.40
31747;DHT22;18319;48.974;8.462;2023-05-17T07:56:34;13.80;93.20
31747;DHT22;18319;48.974;8.462;2023-05-17T07:59:00;13.60;95.50
31747;DHT22;18319;48.974;8.462;2023-05-17T08:01:29;13.60;95.30
31747;DHT22;18319;48.974;8.462;2023-05-17T08:03:55;13.60;95.30
31747;DHT22;18319;48.974;8.462;2023-05-17T08:06:22;13.80;93.30
31747;DHT22;18319;48.974;8.462;2023-05-17T08:08:49;14.20;93.70
31747;DHT22;18319;48.974;8.462;2023-05-17T08:11:16;14.30;91.50
31747;DHT22;18319;48.974;8.462;2023-05-17T08:13:43;14.40;91.80
31747;DHT22;18319;48.974;8.462;2023-05-17T08:16:10;14.40;91.50
31747;DHT22;18319;48.974;8.462;2023-05-17T08:18:38;14.30;92.70
31747;DHT22;18319;48.974;8.462;2023-05-17T08:21:05;14.10;90.50
31747;DHT22;18319;48.974;8.462;2023-05-17T08:23:32;14.00;90.80
31747;DHT22;18319;48.974;8.462;2023-05-17T08:25:58;14.00;89.50
31747;DHT22;18319;48.974;8.462;2023-05-17T08:28:26;14.00;90.30
31747;DHT22;18319;48.974;8.462;2023-05-17T08:30:52;14.10;90.10
31747;DHT22;18319;48.974;8.462;2023-05-17T08:33:19;14.30;90.00
31747;DHT22;18319;48.974;8.462;2023-05-17T08:35:49;14.40;87.70
31747;DHT22;18319;48.974;8.462;2023-05-17T08:38:17;14.40;88.70
31747;DHT22;18319;48.974;8.462;2023-05-17T08:40:50;14.60;89.10
31747;DHT22;18319;48.974;8.462;2023-05-17T08:43:18;14.70;84.40
31747;DHT22;18319;48.974;8.462;2023-05-17T08:45:46;14.90;84.50
31747;DHT22;18319;48.974;8.462;2023-05-17T08:48:14;15.50;80.80
31747;DHT22;18319;48.974;8.462;2023-05-17T08:50:42;16.40;80.70
31747;DHT22;18319;48.974;8.462;2023-05-17T08:53:11;17.30;78.40
31747;DHT22;18319;48.974;8.462;2023-05-17T08:55:40;18.10;69.80
31747;DHT22;18319;48.974;8.462;2023-05-17T08:58:09;18.80;64.50
31747;DHT22;18319;48.974;8.462;2023-05-17T09:00:37;19.60;62.30
31747;DHT22;18319;48.974;8.462;2023-05-17T09:03:04;20.00;57.90
31747;DHT22;18319;48.974;8.462;2023-05-17T09:05:31;20.30;52.40
31747;DHT22;18319;48.974;8.462;2023-05-17T09:07:58;20.80;52.70
31747;DHT22;18319;48.974;8.462;2023-05-17T09:10:27;21.10;50.80
31747;DHT22;18319;48.974;8.462;2023-05-17T09:12:56;21.50;50.80
31747;DHT22;18319;48.974;8.462;2023-05-17T09:15:23;21.60;54.30
31747;DHT22;18319;48.974;8.462;2023-05-17T09:17:52;21.20;49.50
31747;DHT22;18319;48.974;8.462;2023-05-17T09:20:23;20.50;47.60
31747;DHT22;18319;48.974;8.462;2023-05-17T09:22:50;19.90;51.50
31747;DHT22;18319;48.974;8.462;2023-05-17T09:25:18;19.30;53.10
31747;DHT22;18319;48.974;8.462;2023-05-17T09:27:46;18.70;51.60
31747;DHT22;18319;48.974;8.462;2023-05-17T09:30:13;18.10;53.90
31747;DHT22;18319;48.974;8.462;2023-05-17T09:32:43;17.70;55.80
31747;DHT22;18319;48.974;8.462;2023-05-17T09:35:12;17.30;57.80
31747;DHT22;18319;48.974;8.462;2023-05-17T09:37:41;17.10;57.70
31747;DHT22;18319;48.974;8.462;2023-05-17T09:40:10;16.80;58.00
31747;DHT22;18319;48.974;8.462;2023-05-17T09:42:48;16.70;60.60
31747;DHT22;18319;48.974;8.462;2023-05-17T09:45:20;16.50;59.70
31747;DHT22;18319;48.974;8.462;2023-05-17T09:47:47;16.60;58.40
31747;DHT22;18319;48.974;8.462;2023-05-17T09:50:17;16.80;59.50
31747;DHT22;18319;48.974;8.462;2023-05-17T09:52:44;17.10;57.20
31747;DHT22;18319;48.974;8.462;2023-05-17T09:55:12;17.30;56.20
31747;DHT22;18319;48.974;8.462;2023-05-17T09:57:40;17.70;57.50
31747;DHT22;18319;48.974;8.462;2023-05-17T10:00:09;17.70;55.90
31747;DHT22;18319;48.974;8.462;2023-05-17T10:02:37;18.00;55.70
31747;DHT22;18319;48.974;8.462;2023-05-17T10:05:09;18.20;59.10
31747;DHT22;18319;48.974;8.462;2023-05-17T10:07:37;18.00;62.00
31747;DHT22;18319;48.974;8.462;2023-05-17T10:10:05;17.90;59.00
31747;DHT22;18319;48.974;8.462;2023-05-17T10:12:33;17.80;62.10
31747;DHT22;18319;48.974;8.462;2023-05-17T10:15:03;17.80;59.80
31747;DHT22;18319;48.974;8.462;2023-05-17T10:17:32;17.50;59.70
31747;DHT22;18319;48.974;8.462;2023-05-17T10:20:00;17.10;57.30
31747;DHT22;18319;48.974;8.462;2023-05-17T10:22:31;16.70;56.50
31747;DHT22;18319;48.974;8.462;2023-05-17T10:24:58;16.30;57.90
31747;DHT22;18319;48.974;8.462;2023-05-17T10:27:25;16.10;59.50
31747;DHT22;18319;48.974;8.462;2023-05-17T10:29:52;16.00;58.30
31747;DHT22;18319;48.974;8.462;2023-05-17T10:32:20;15.90;59.40
31747;DHT22;18319;48.974;8.462;2023-05-17T10:34:53;15.80;57.10
31747;DHT22;18319;48.974;8.462;2023-05-17T10:37:20;15.80;58.90
31747;DHT22;18319;48.974;8.462;2023-05-17T10:39:48;16.00;59.40
31747;DHT22;18319;48.974;8.462;2023-05-17T10:42:16;16.20;57.60
31747;DHT22;18319;48.974;8.462;2023-05-17T10:47:54;16.70;58.80
31747;DHT22;18319;48.974;8.462;2023-05-17T10:50:24;16.70;56.60
31747;DHT22;18319;48.974;8.462;2023-05-17T10:52:52;16.80;57.70
31747;DHT22;18319;48.974;8.462;2023-05-17T10:55:21;16.80;58.90
31747;DHT22;18319;48.974;8.462;2023-05-17T10:58:15;16.60;55.80
31747;DHT22;18319;48.974;8.462;2023-05-17T11:00:44;16.60;59.40
31747;DHT22;18319;48.974;8.462;2023-05-17T11:03:13;16.70;59.10
31747;DHT22;18319;48.974;8.462;2023-05-17T11:05:43;16.60;57.50
31747;DHT22;18319;48.974;8.462;2023-05-17T11:08:15;16.70;59.70
31747;DHT22;18319;48.974;8.462;2023-05-17T11:11:07;16.60;57.90
31747;DHT22;18319;48.974;8.462;2023-05-17T11:13:46;16.40;59.10
31747;DHT22;18319;48.974;8.462;2023-05-17T11:16:16;16.30;58.50
31747;DHT22;18319;48.974;8.462;2023-05-17T11:18:47;16.10;56.10
31747;DHT22;18319;48.974;8.462;2023-05-17T11:21:15;16.10;58.00
31747;DHT22;18319;48.974;8.462;2023-05-17T11:23:43;16.00;59.20
31747;DHT22;18319;48.974;8.462;2023-05-17T11:26:18;16.20;58.10
31747;DHT22;18319;48.974;8.462;2023-05-17T11:28:46;16.20;57.50
31747;DHT22;18319;48.974;8.462;2023-05-17T11:31:13;16.00;55.10
31747;DHT22;18319;48.974;8.462;2023-05-17T11:33:42;16.00;57.30
31747;DHT22;18319;48.974;8.462;2023-05-17T11:36:19;16.00;57.70
31747;DHT22;18319;48.974;8.462;2023-05-17T11:38:49;16.00;57.60
31747;DHT22;18319;48.974;8.462;2023-05-17T11:41:36;16.10;59.00
31747;DHT22;18319;48.974;8.462;2023-05-17T11:44:05;16.30;57.30
31747;DHT22;18319;48.974;8.462;2023-05-17T11:46:32;16.30;58.30
31747;DHT22;18319;48.974;8.462;2023-05-17T11:49:00;16.40;59.60
31747;DHT22;18319;48.974;8.462;2023-05-17T11:51:49;16.20;57.60
31747;DHT22;18319;48.974;8.462;2023-05-17T11:54:17;16.50;63.60
31747;DHT22;18319;48.974;8.462;2023-05-17T11:56:43;16.60;58.30
31747;DHT22;18319;48.974;8.462;2023-05-17T11:59:10;16.60;58.40
31747;DHT22;18319;48.974;8.462;2023-05-17T12:01:44;16.60;58.80
31747;DHT22;18319;48.974;8.462;2023-05-17T12:04:11;16.50;59.50
31747;DHT22;18319;48.974;8.462;2023-05-17T12:06:38;16.50;54.60
31747;DHT22;18319;48.974;8.462;2023-05-17T12:09:06;16.40;53.70
31747;DHT22;18319;48.974;8.462;2023-05-17T12:11:35;16.30;52.10
31747;DHT22;18319;48.974;8.462;2023-05-17T12:14:04;16.30;52.90
31747;DHT22;18319;48.974;8.462;2023-05-17T12:16:31;16.40;52.10
31747;DHT22;18319;48.974;8.462;2023-05-17T12:18:59;16.70;53.90
31747;DHT22;18319;48.974;8.462;2023-05-17T12:21:26;16.60;51.30
31747;DHT22;18319;48.974;8.462;2023-05-17T12:23:53;16.90;53.30
31747;DHT22;18319;48.974;8.462;2023-05-17T12:26:22;17.00;52.90
31747;DHT22;18319;48.974;8.462;2023-05-17T12:28:53;17.20;52.80
31747;DHT22;18319;48.974;8.462;2023-05-17T12:31:24;17.10;51.90
31747;DHT22;18319;48.974;8.462;2023-05-17T12:33:52;17.00;52.20
31747;DHT22;18319;48.974;8.462;2023-05-17T12:36:20;16.90;52.80
31747;DHT22;18319;48.974;8.462;2023-05-17T12:38:48;17.00;51.80
31747;DHT22;18319;48.974;8.462;2023-05-17T12:41:15;17.00;54.00
31747;DHT22;18319;48.974;8.462;2023-05-17T12:43:44;17.00;52.60
31747;DHT22;18319;48.974;8.462;2023-05-17T12:46:13;17.10;51.70
31747;DHT22;18319;48.974;8.462;2023-05-17T12:48:41;17.20;52.50
31747;DHT22;18319;48.974;8.462;2023-05-17T12:51:09;17.30;49.70
31747;DHT22;18319;48.974;8.462;2023-05-17T12:53:37;17.40;48.40
31747;DHT22;18319;48.974;8.462;2023-05-17T12:56:05;17.40;48.70
31747;DHT22;18319;48.974;8.462;2023-05-17T12:58:32;17.40;49.80
31747;DHT22;18319;48.974;8.462;2023-05-17T13:01:00;17.60;49.20
31747;DHT22;18319;48.974;8.462;2023-05-17T13:03:28;17.70;49.30
31747;DHT22;18319;48.974;8.462;2023-05-17T13:06:02;17.80;48.20
31747;DHT22;18319;48.974;8.462;2023-05-17T13:08:30;17.80;47.80
31747;DHT22;18319;48.974;8.462;2023-05-17T13:11:11;17.80;46.50
31747;DHT22;18319;48.974;8.462;2023-05-17T13:13:38;17.80;47.10
31747;DHT22;18319;48.974;8.462;2023-05-17T13:16:06;17.60;45.30
31747;DHT22;18319;48.974;8.462;2023-05-17T13:18:49;17.50;49.20
31747;DHT22;18319;48.974;8.462;2023-05-17T13:21:18;17.30;49.60
31747;DHT22;18319;48.974;8.462;2023-05-17T13:23:46;17.20;47.00
31747;DHT22;18319;48.974;8.462;2023-05-17T13:26:13;16.80;47.40
31747;DHT22;18319;48.974;8.462;2023-05-17T13:28:40;16.80;48.40
31747;DHT22;18319;48.974;8.462;2023-05-17T13:31:08;16.70;48.30
31747;DHT22;18319;48.974;8.462;2023-05-17T13:33:35;16.90;54.40
31747;DHT22;18319;48.974;8.462;2023-05-17T13:36:02;16.90;50.10
31747;DHT22;18319;48.974;8.462;2023-05-17T13:38:29;16.90;50.30
31747;DHT22;18319;48.974;8.462;2023-05-17T13:40:56;16.90;49.50
31747;DHT22;18319;48.974;8.462;2023-05-17T13:43:23;16.70;48.50
31747;DHT22;18319;48.974;8.462;2023-05-17T13:45:49;16.60;51.00
31747;DHT22;18319;48.974;8.462;2023-05-17T13:48:22;16.40;49.60
31747;DHT22;18319;48.974;8.462;2023-05-17T13:50:49;16.20;49.70
31747;DHT22;18319;48.974;8.462;2023-05-17T13:53:16;16.30;50.70
31747;DHT22;18319;48.974;8.462;2023-05-17T13:55:43;16.60;49.80
31747;DHT22;18319;48.974;8.462;2023-05-17T13:58:10;16.70;48.40
31747;DHT22;18319;48.974;8.462;2023-05-17T14:00:37;16.70;46.10
31747;DHT22;18319;48.974;8.462;2023-05-17T14:03:07;16.70;49.20
31747;DHT22;18319;48.974;8.462;2023-05-17T14:05:35;16.80;49.80
31747;DHT22;18319;48.974;8.462;2023-05-17T14:08:02;16.70;43.60
31747;DHT22;18319;48.974;8.462;2023-05-17T14:10:29;16.70;47.10
31747;DHT22;18319;48.974;8.462;2023-05-17T14:12:56;16.60;44.70
31747;DHT22;18319;48.974;8.462;2023-05-17T14:15:22;16.60;45.80
31747;DHT22;18319;48.974;8.462;2023-05-17T14:17:52;16.90;51.10
31747;DHT22;18319;48.974;8.462;2023-05-17T14:20:18;17.20;55.10
31747;DHT22;18319;48.974;8.462;2023-05-17T14:22:47;17.60;51.10
31747;DHT22;18319;48.974;8.462;2023-05-17T14:25:14;17.80;42.90
31747;DHT22;18319;48.974;8.462;2023-05-17T14:27:40;18.00;41.80
31747;DHT22;18319;48.974;8.462;2023-05-17T14:30:08;17.90;42.40
31747;DHT22;18319;48.974;8.462;2023-05-17T14:32:35;17.70;44.50
31747;DHT22;18319;48.974;8.462;2023-05-17T14:35:04;17.50;44.00
31747;DHT22;18319;48.974;8.462;2023-05-17T14:37:31;17.20;44.90
31747;DHT22;18319;48.974;8.462;2023-05-17T14:39:59;16.90;43.70
31747;DHT22;18319;48.974;8.462;2023-05-17T14:42:26;16.60;45.60
31747;DHT22;18319;48.974;8.462;2023-05-17T14:44:55;16.60;47.10
31747;DHT22;18319;48.974;8.462;2023-05-17T14:47:22;16.70;46.90
31747;DHT22;18319;48.974;8.462;2023-05-17T14:49:49;16.70;45.90
31747;DHT22;18319;48.974;8.462;2023-05-17T14:52:16;16.90;46.60
31747;DHT22;18319;48.974;8.462;2023-05-17T14:54:43;17.10;48.20
31747;DHT22;18319;48.974;8.462;2023-05-17T14:57:11;17.30;52.80
31747;DHT22;18319;48.974;8.462;2023-05-17T14:59:38;17.40;51.20
31747;DHT22;18319;48.974;8.462;2023-05-17T15:02:06;17.60;47.40
31747;DHT22;18319;48.974;8.462;2023-05-17T15:04:33;17.70;45.10
31747;DHT22;18319;48.974;8.462;2023-05-17T15:07:00;17.90;44.20
31747;DHT22;18319;48.974;8.462;2023-05-17T15:09:27;17.70;41.50
31747;DHT22;18319;48.974;8.462;2023-05-17T15:11:55;17.80;42.20
31747;DHT22;18319;48.974;8.462;2023-05-17T15:14:23;17.60;44.30
31747;DHT22;18319;48.974;8.462;2023-05-17T15:16:51;17.40;43.10
31747;DHT22;18319;48.974;8.462;2023-05-17T15:19:18;17.20;43.50
31747;DHT22;18319;48.974;8.462;2023-05-17T15:21:45;16.90;44.90
31747;DHT22;18319;48.974;8.462;2023-05-17T15:24:12;16.60;44.60
31747;DHT22;18319;48.974;8.462;2023-05-17T15:26:39;16.40;45.10
31747;DHT22;18319;48.974;8.462;2023-05-17T15:29:06;15.90;45.40
31747;DHT22;18319;48.974;8.462;2023-05-17T15:31:34;15.60;46.90
31747;DHT22;18319;48.974;8.462;2023-05-17T15:34:01;15.20;47.60
31747;DHT22;18319;48.974;8.462;2023-05-17T15:36:29;14.90;47.70
31747;DHT22;18319;48.974;8.462;2023-05-17T15:38:56;14.70;49.50
31747;DHT22;18319;48.974;8.462;2023-05-17T15:41:22;14.60;50.10
31747;DHT22;18319;48.974;8.462;2023-05-17T15:43:52;14.60;50.50
31747;DHT22;18319;48.974;8.462;2023-05-17T15:46:19;14.80;50.20